createdAt,value
2016-08-11T00:03:09.585Z,9.2
2016-08-11T00:06:12.465Z,9.1
2016-08-11T00:09:24.542Z,9.1
2016-08-11T00:12:37.361Z,9
2016-08-11T00:15:50.103Z,9
2016-08-11T00:19:06.836Z,8.9
2016-08-11T00:22:14.007Z,8.9
2016-08-11T00:25:15.925Z,8.9
2016-08-11T00:28:26.967Z,8.9
2016-08-11T00:31:41.699Z,8.8
2016-08-11T00:34:55.197Z,8.8
2016-08-11T00:38:13.596Z,8.8
2016-08-11T00:41:17.201Z,8.7
2016-08-11T00:44:27.480Z,8.7
2016-08-11T00:47:40.430Z,8.6
2016-08-11T00:50:53.916Z,8.6
2016-08-11T00:54:11.683Z,8.6
2016-08-11T00:57:14.732Z,8.5
2016-08-11T01:00:25.188Z,8.5
2016-08-11T01:03:38.601Z,8.5
2016-08-11T01:06:52.616Z,8.5
2016-08-11T01:10:11.482Z,8.5
2016-08-11T01:13:15.493Z,8.4
2016-08-11T01:16:27.956Z,8.4
2016-08-11T01:19:40.800Z,8.3
2016-08-11T01:22:54.646Z,8.3
2016-08-11T01:26:10.762Z,8.3
2016-08-11T01:29:14.419Z,8.2
2016-08-11T01:32:26.570Z,8.2
2016-08-11T01:35:38.107Z,8.2
2016-08-11T01:38:48.777Z,8.1
2016-08-11T01:42:07.497Z,8.1
2016-08-11T01:45:08.967Z,8.1
2016-08-11T01:48:24.319Z,8.1
2016-08-11T01:51:36.948Z,8
2016-08-11T01:54:49.821Z,8
2016-08-11T01:58:08.118Z,8
2016-08-11T02:01:11.624Z,8
2016-08-11T02:04:20.856Z,7.9
2016-08-11T02:07:36.537Z,7.9
2016-08-11T02:10:49.927Z,7.9
2016-08-11T02:14:07.340Z,7.8
2016-08-11T02:17:10.641Z,7.8
2016-08-11T02:20:23.820Z,7.8
2016-08-11T02:23:36.906Z,7.8
2016-08-11T02:26:49.573Z,7.8
2016-08-11T02:30:07.098Z,7.7
2016-08-11T02:33:09.972Z,7.7
2016-08-11T02:36:22.757Z,7.7
2016-08-11T02:39:35.166Z,7.7
2016-08-11T02:42:47.609Z,7.7
2016-08-11T02:46:04.856Z,7.7
2016-08-11T02:49:13.451Z,7.7
2016-08-11T02:52:16.962Z,7.7
2016-08-11T02:55:30.194Z,7.7
2016-08-11T02:58:42.996Z,7.7
2016-08-11T03:01:55.206Z,7.6
2016-08-11T03:05:13.441Z,7.6
2016-08-11T03:08:16.543Z,7.6
2016-08-11T03:11:26.472Z,7.6
2016-08-11T03:14:39.758Z,7.6
2016-08-11T03:17:52.998Z,7.7
2016-08-11T03:21:10.294Z,7.7
2016-08-11T03:24:13.967Z,7.7
2016-08-11T03:27:26.772Z,7.7
2016-08-11T03:30:40.057Z,7.7
2016-08-11T03:33:52.690Z,7.7
2016-08-11T03:37:10.369Z,7.7
2016-08-11T03:40:12.175Z,7.8
2016-08-11T03:43:23.819Z,7.8
2016-08-11T03:46:37.091Z,7.8
2016-08-11T03:49:50.404Z,7.8
2016-08-11T03:53:08.442Z,7.8
2016-08-11T03:56:11.654Z,7.8
2016-08-11T03:59:25.304Z,7.8
2016-08-11T04:02:38.631Z,7.7
2016-08-11T04:05:52.024Z,7.8
2016-08-11T04:09:07.427Z,7.8
2016-08-11T04:12:10.674Z,7.8
2016-08-11T04:15:23.112Z,7.8
2016-08-11T04:18:35.842Z,7.9
2016-08-11T04:21:48.553Z,7.9
2016-08-11T04:25:05.911Z,7.9
2016-08-11T04:28:14.074Z,7.9
2016-08-11T04:31:16.769Z,7.9
2016-08-11T04:34:29.589Z,8
2016-08-11T04:37:40.809Z,8
2016-08-11T04:40:54.521Z,8
2016-08-11T04:44:13.480Z,8
2016-08-11T04:47:17.312Z,8.1
2016-08-11T04:50:35.378Z,8.1
2016-08-11T04:53:44.871Z,8.1
2016-08-11T04:56:56.176Z,8
